createdAt,value
2022-10-10T00:00:06.153Z,100857.72
2022-10-10T00:02:33.749Z,100856.59
2022-10-10T00:05:01.234Z,100860.97
2022-10-10T00:07:30.053Z,100856.41
2022-10-10T00:09:57.527Z,100854.44
2022-10-10T00:12:25.037Z,100851.81
2022-10-10T00:14:52.515Z,100846.56
2022-10-10T00:17:20.036Z,100845.50
2022-10-10T00:19:47.508Z,100843.81
2022-10-10T00:22:15.027Z,100841.56
2022-10-10T00:24:43.925Z,100843.75
2022-10-10T00:27:11.423Z,100841.47
2022-10-10T00:29:38.871Z,100839.75
2022-10-10T00:32:06.439Z,100831.19
2022-10-10T00:34:33.884Z,100835.34
2022-10-10T00:37:01.423Z,100832.53
2022-10-10T00:39:28.884Z,100831.19
2022-10-10T00:41:57.780Z,100831.81
2022-10-10T00:44:25.259Z,100824.84
2022-10-10T00:46:52.813Z,100825.84
2022-10-10T00:49:22.236Z,100826.72
2022-10-10T00:51:51.802Z,100828.44
2022-10-10T00:54:21.082Z,100830.03
2022-10-10T00:56:52.756Z,100825.41
2022-10-10T00:59:22.167Z,100823.00
2022-10-10T01:01:49.657Z,100829.84
2022-10-10T01:04:31.679Z,100825.78
2022-10-10T01:06:59.469Z,100824.69
2022-10-10T01:09:27.181Z,100825.31
2022-10-10T01:11:58.988Z,100822.38
2022-10-10T01:14:35.678Z,100833.25
2022-10-10T01:17:06.940Z,100828.56
2022-10-10T01:19:54.844Z,100817.91
2022-10-10T01:22:28.049Z,100817.00
2022-10-10T01:24:59.090Z,100816.38
2022-10-10T01:27:32.800Z,100813.50
2022-10-10T01:30:06.768Z,100819.41
2022-10-10T01:32:39.033Z,100811.94
2022-10-10T01:35:21.413Z,100805.66
2022-10-10T01:37:54.601Z,100811.56
2022-10-10T01:40:26.463Z,100809.91
2022-10-10T01:42:55.968Z,100805.28
2022-10-10T01:45:25.197Z,100812.22
2022-10-10T01:47:53.380Z,100803.94
2022-10-10T01:50:22.920Z,100804.78
2022-10-10T01:52:58.488Z,100807.13
2022-10-10T01:55:37.597Z,100810.88
2022-10-10T01:58:16.087Z,100804.38
2022-10-10T02:00:49.784Z,100800.59
2022-10-10T02:03:20.828Z,100802.63
2022-10-10T02:05:50.358Z,100798.63
2022-10-10T02:08:22.215Z,100795.84
2022-10-10T02:10:52.292Z,100795.09
2022-10-10T02:13:20.451Z,100787.84
2022-10-10T02:15:52.266Z,100787.47
2022-10-10T02:18:24.002Z,100785.19
2022-10-10T02:20:52.488Z,100782.19
2022-10-10T02:23:21.894Z,100783.09
2022-10-10T02:25:52.442Z,100779.34
2022-10-10T02:28:23.025Z,100785.25
2022-10-10T02:30:53.616Z,100781.31
2022-10-10T02:33:24.426Z,100777.25
2022-10-10T02:35:52.805Z,100782.59
2022-10-10T02:38:20.569Z,100779.53
2022-10-10T02:40:49.340Z,100782.41
2022-10-10T02:43:17.763Z,100773.81
2022-10-10T02:45:45.271Z,100781.53
2022-10-10T02:48:14.396Z,100783.56
2022-10-10T02:50:42.044Z,100789.94
2022-10-10T02:53:09.531Z,100768.78
2022-10-10T02:55:37.059Z,100779.41
2022-10-10T02:58:04.545Z,100776.59
2022-10-10T03:00:31.997Z,100764.72
2022-10-10T03:02:59.489Z,100774.28
2022-10-10T03:05:28.367Z,100763.66
2022-10-10T03:07:55.859Z,100765.69
2022-10-10T03:10:23.316Z,100768.81
2022-10-10T03:12:51.050Z,100766.38
2022-10-10T03:15:18.758Z,100772.66
2022-10-10T03:17:46.249Z,100780.75
2022-10-10T03:20:13.827Z,100775.19
2022-10-10T03:22:42.656Z,100777.03
2022-10-10T03:25:10.410Z,100781.50
2022-10-10T03:27:37.874Z,100778.84
2022-10-10T03:30:06.386Z,100779.31
2022-10-10T03:32:33.855Z,100780.75
2022-10-10T03:35:01.298Z,100788.09
2022-10-10T03:37:28.880Z,100782.16
2022-10-10T03:39:57.634Z,100791.78
2022-10-10T03:42:25.185Z,100787.06
2022-10-10T03:44:52.694Z,100778.56
2022-10-10T03:47:20.179Z,100777.59
2022-10-10T03:49:47.639Z,100778.41
2022-10-10T03:52:15.121Z,100774.13
2022-10-10T03:54:42.630Z,100774.69
2022-10-10T03:57:11.437Z,100773.44
2022-10-10T03:59:38.901Z,100777.47
2022-10-10T04:02:06.372Z,100768.69
2022-10-10T04:04:33.954Z,100776.91
2022-10-10T04:07:01.463Z,100774.03
2022-10-10T04:09:28.975Z,100766.22
2022-10-10T04:11:56.829Z,100768.19
2022-10-10T04:14:25.616Z,100769.19
2022-10-10T04:16:53.080Z,100767.72
2022-10-10T04:19:20.620Z,100769.25
2022-10-10T04:21:48.060Z,100765.19
2022-10-10T04:24:15.557Z,100763.06
2022-10-10T04:26:43.031Z,100757.81
2022-10-10T04:29:10.502Z,100765.41
2022-10-10T04:31:39.413Z,100761.91
2022-10-10T04:34:07.153Z,100769.13
2022-10-10T04:36:34.634Z,100775.34
2022-10-10T04:39:02.209Z,100769.97
2022-10-10T04:41:29.674Z,100774.84
2022-10-10T04:43:57.164Z,100768.03
2022-10-10T04:46:24.665Z,100779.66
2022-10-10T04:48:53.571Z,100773.88
2022-10-10T04:51:21.126Z,100769.59
2022-10-10T04:53:50.596Z,100784.50
2022-10-10T04:56:18.355Z,100781.00
2022-10-10T04:58:45.830Z,100785.47
2022-10-10T05:01:13.331Z,100792.25
2022-10-10T05:03:40.850Z,100792.97
2022-10-10T05:06:09.682Z,100784.91
2022-10-10T05:08:37.211Z,100783.78
2022-10-10T05:11:04.653Z,100785.97
2022-10-10T05:13:32.157Z,100781.25
2022-10-10T05:16:00.705Z,100783.22
2022-10-10T05:18:28.224Z,100780.59
2022-10-10T05:20:58.716Z,100779.16
2022-10-10T05:23:34.124Z,100780.88
2022-10-10T05:26:01.576Z,100779.22
2022-10-10T05:28:29.144Z,100783.94
2022-10-10T05:30:56.680Z,100786.44
2022-10-10T05:33:24.293Z,100772.00
2022-10-10T05:35:51.760Z,100772.66
2022-10-10T05:38:19.243Z,100780.34
2022-10-10T05:40:48.053Z,100779.22
2022-10-10T05:43:15.628Z,100792.25
2022-10-10T05:45:43.768Z,100780.59
2022-10-10T05:48:11.227Z,100783.59
2022-10-10T05:50:41.207Z,100773.66
2022-10-10T05:53:08.658Z,100791.56
2022-10-10T05:55:36.610Z,100786.25
2022-10-10T05:58:05.464Z,100777.66
2022-10-10T06:00:32.971Z,100782.66
2022-10-10T06:03:00.465Z,100785.28
2022-10-10T06:05:28.045Z,100779.63
2022-10-10T06:08:12.271Z,100785.91
2022-10-10T06:10:42.864Z,100787.28
2022-10-10T06:13:12.169Z,100788.09
2022-10-10T06:15:39.745Z,100794.44
2022-10-10T06:18:07.738Z,100799.47
2022-10-10T06:20:36.404Z,100803.66
2022-10-10T06:23:05.061Z,100799.75
2022-10-10T06:25:41.961Z,100805.44
2022-10-10T06:28:11.534Z,100798.09
2022-10-10T06:30:42.325Z,100800.88
2022-10-10T06:33:09.944Z,100801.16
2022-10-10T06:35:40.323Z,100811.56
2022-10-10T06:38:07.783Z,100809.59
2022-10-10T06:40:35.416Z,100807.19
2022-10-10T06:43:04.465Z,100820.34
2022-10-10T06:45:37.213Z,100810.75
2022-10-10T06:48:05.023Z,100810.28
2022-10-10T06:50:32.558Z,100815.66
2022-10-10T06:53:00.250Z,100814.94
2022-10-10T06:55:28.001Z,100822.72
2022-10-10T06:57:55.519Z,100822.81
2022-10-10T07:00:23.015Z,100838.06
2022-10-10T07:02:52.603Z,100835.41
2022-10-10T07:05:20.327Z,100832.97
2022-10-10T07:07:47.801Z,100833.53
2022-10-10T07:10:16.669Z,100820.69
2022-10-10T07:12:52.332Z,100837.63
2022-10-10T07:15:19.906Z,100841.91
2022-10-10T07:17:53.377Z,100847.56
2022-10-10T07:20:23.127Z,100850.31
2022-10-10T07:22:50.924Z,100850.06
2022-10-10T07:25:18.665Z,100845.09
2022-10-10T07:27:46.171Z,100840.78
2022-10-10T07:30:14.916Z,100851.81
2022-10-10T07:32:43.382Z,100848.78
2022-10-10T07:35:11.889Z,100852.53
2022-10-10T07:37:40.761Z,100851.09
2022-10-10T07:40:09.853Z,100852.59
2022-10-10T07:42:37.375Z,100862.63
2022-10-10T07:45:05.738Z,100861.06
2022-10-10T07:47:33.257Z,100863.94
2022-10-10T07:50:00.707Z,100857.19
2022-10-10T07:52:28.171Z,100859.25
2022-10-10T07:54:57.033Z,100862.09
2022-10-10T07:57:24.610Z,100860.81
2022-10-10T07:59:52.066Z,100852.53
2022-10-10T08:02:19.576Z,100849.03
2022-10-10T08:04:47.056Z,100851.03
2022-10-10T08:07:14.532Z,100856.38
2022-10-10T08:09:42.231Z,100860.00
2022-10-10T08:12:11.039Z,100855.69
2022-10-10T08:14:38.629Z,100858.34
2022-10-10T08:17:06.251Z,100846.72
2022-10-10T08:19:33.732Z,100854.19
2022-10-10T08:22:01.662Z,100851.66
2022-10-10T08:24:29.264Z,100852.47
2022-10-10T08:26:56.747Z,100851.31
2022-10-10T08:29:25.715Z,100852.47
2022-10-10T08:31:53.151Z,100854.91
2022-10-10T08:34:20.628Z,100856.25
2022-10-10T08:36:48.274Z,100852.06
2022-10-10T08:39:17.204Z,100849.75
2022-10-10T08:41:50.196Z,100848.53
2022-10-10T08:44:22.488Z,100849.47
2022-10-10T08:46:53.888Z,100840.75
2022-10-10T08:49:25.410Z,100839.38
2022-10-10T08:51:58.948Z,100842.03
2022-10-10T08:54:27.007Z,100837.34
2022-10-10T08:56:57.673Z,100840.16
2022-10-10T08:59:28.050Z,100840.47
2022-10-10T09:02:19.458Z,100826.88
2022-10-10T09:04:50.905Z,100828.94
2022-10-10T09:07:25.852Z,100832.06
2022-10-10T09:10:01.100Z,100830.97
2022-10-10T09:12:33.639Z,100824.31
2022-10-10T09:15:06.733Z,100824.41
2022-10-10T09:17:39.567Z,100819.72
2022-10-10T09:20:31.240Z,100830.28
2022-10-10T09:23:02.932Z,100831.69
2022-10-10T09:25:32.753Z,100829.75
2022-10-10T09:28:04.955Z,100835.91
2022-10-10T09:30:34.369Z,100834.44
2022-10-10T09:33:08.372Z,100829.28
2022-10-10T09:35:38.846Z,100828.75
2022-10-10T09:38:29.050Z,100833.41
2022-10-10T09:41:00.139Z,100824.84
2022-10-10T09:43:32.314Z,100826.59
2022-10-10T09:46:00.453Z,100821.31
2022-10-10T09:48:31.576Z,100825.88
2022-10-10T09:50:59.907Z,100826.84
2022-10-10T09:53:28.909Z,100837.63
2022-10-10T09:55:56.584Z,100824.59
2022-10-10T09:58:30.833Z,100818.84
2022-10-10T10:01:12.514Z,100820.56
2022-10-10T10:03:41.743Z,100821.28
2022-10-10T10:06:16.097Z,100824.69
2022-10-10T10:08:49.862Z,100831.69
2022-10-10T10:11:29.901Z,100822.31
2022-10-10T10:13:57.892Z,100833.31
2022-10-10T10:16:32.020Z,100834.22
2022-10-10T10:19:01.006Z,100832.66
2022-10-10T10:21:28.743Z,100832.50
2022-10-10T10:23:58.686Z,100827.59
2022-10-10T10:26:29.545Z,100834.44
2022-10-10T10:28:58.951Z,100819.69
2022-10-10T10:31:49.107Z,100830.25
2022-10-10T10:34:43.865Z,100833.56
2022-10-10T10:37:19.774Z,100833.22
2022-10-10T10:39:56.469Z,100823.13
2022-10-10T10:42:33.801Z,100823.56
2022-10-10T10:45:04.966Z,100817.41
2022-10-10T10:47:40.880Z,100828.13
2022-10-10T10:50:29.366Z,100823.84
2022-10-10T10:53:00.479Z,100821.78
2022-10-10T10:55:39.121Z,100818.72
2022-10-10T11:01:33.460Z,100817.91
2022-10-10T11:05:25.094Z,100807.63
2022-10-10T11:07:18.485Z,100810.06
2022-10-10T11:09:53.638Z,100805.75
2022-10-10T11:12:31.908Z,100814.19
2022-10-10T11:15:02.268Z,100819.16
2022-10-10T11:17:37.223Z,100807.13
2022-10-10T11:20:09.587Z,100810.66
2022-10-10T11:22:46.358Z,100804.91
2022-10-10T11:25:17.693Z,100801.78
2022-10-10T11:27:47.891Z,100807.09
2022-10-10T11:30:17.095Z,100800.72
2022-10-10T11:32:50.618Z,100794.34
2022-10-10T11:35:28.655Z,100797.56
2022-10-10T11:38:02.011Z,100809.28
2022-10-10T11:40:46.530Z,100802.25
2022-10-10T11:43:19.772Z,100792.13
2022-10-10T11:45:53.592Z,100800.34
2022-10-10T11:48:27.874Z,100799.31
2022-10-10T11:50:59.145Z,100803.00
2022-10-10T11:53:32.500Z,100802.38
2022-10-10T11:56:04.495Z,100804.84
2022-10-10T11:58:35.412Z,100806.59
2022-10-10T12:01:07.449Z,100795.88
2022-10-10T12:03:35.055Z,100801.38
2022-10-10T12:06:05.935Z,100811.97
2022-10-10T12:08:37.828Z,100795.66
2022-10-10T12:11:14.376Z,100807.97
2022-10-10T12:13:44.093Z,100809.53
2022-10-10T12:16:14.042Z,100809.97
2022-10-10T12:18:44.083Z,100798.84
2022-10-10T12:21:13.806Z,100782.22
2022-10-10T12:23:43.407Z,100788.34
2022-10-10T12:26:15.974Z,100790.81
2022-10-10T12:29:01.639Z,100788.75
2022-10-10T12:31:36.912Z,100789.94
2022-10-10T12:34:15.246Z,100779.19
2022-10-10T12:37:02.021Z,100779.91
2022-10-10T12:39:40.282Z,100773.69
2022-10-10T12:42:27.402Z,100776.69
2022-10-10T12:44:54.976Z,100775.94
2022-10-10T12:47:52.726Z,100778.41
2022-10-10T12:50:24.001Z,100766.53
2022-10-10T12:52:54.404Z,100775.81
2022-10-10T12:55:26.013Z,100767.03
2022-10-10T12:57:55.616Z,100767.59
2022-10-10T13:00:24.900Z,100767.94
2022-10-10T13:02:54.895Z,100764.81
2022-10-10T13:05:27.425Z,100766.56
2022-10-10T13:07:57.571Z,100770.16
2022-10-10T13:10:28.295Z,100761.88
2022-10-10T13:13:03.570Z,100771.09
2022-10-10T13:15:32.020Z,100768.06
2022-10-10T13:17:59.498Z,100762.66
2022-10-10T13:20:30.398Z,100764.34
2022-10-10T13:22:58.249Z,100757.47
2022-10-10T13:25:27.449Z,100764.59
2022-10-10T13:27:55.045Z,100760.69
2022-10-10T13:30:24.110Z,100754.59
2022-10-10T13:32:52.528Z,100765.31
2022-10-10T13:35:22.482Z,100763.56
2022-10-10T13:37:54.138Z,100756.47
2022-10-10T13:40:21.785Z,100763.25
2022-10-10T13:42:51.142Z,100765.69
2022-10-10T13:45:38.080Z,100760.38
2022-10-10T13:48:16.562Z,100757.91
2022-10-10T13:51:09.603Z,100759.22
2022-10-10T13:53:46.099Z,100750.69
2022-10-10T13:56:17.451Z,100754.56
2022-10-10T13:58:50.278Z,100759.50
2022-10-10T14:01:30.963Z,100756.50
2022-10-10T14:04:03.034Z,100751.81
2022-10-10T14:06:30.516Z,100756.75
2022-10-10T14:09:05.109Z,100761.78
2022-10-10T14:11:34.697Z,100765.31
2022-10-10T14:14:07.057Z,100765.97
2022-10-10T14:16:34.627Z,100769.97
2022-10-10T14:19:02.160Z,100765.44
2022-10-10T14:21:29.638Z,100757.66
2022-10-10T14:23:57.098Z,100755.69
2022-10-10T14:26:24.558Z,100760.00
2022-10-10T14:28:52.075Z,100749.44
2022-10-10T14:31:21.150Z,100751.09
2022-10-10T14:33:48.622Z,100751.63
2022-10-10T14:36:16.156Z,100747.19
2022-10-10T14:38:43.595Z,100749.81
2022-10-10T14:41:13.053Z,100743.00
2022-10-10T14:43:45.537Z,100753.13
2022-10-10T14:46:18.309Z,100749.34
2022-10-10T14:48:47.154Z,100753.00
2022-10-10T14:51:33.769Z,100742.13
2022-10-10T14:54:11.784Z,100739.53
2022-10-10T14:57:07.378Z,100749.28
2022-10-10T14:59:47.251Z,100745.06
2022-10-10T15:02:17.828Z,100756.03
2022-10-10T15:04:46.639Z,100740.78
2022-10-10T15:07:15.173Z,100744.88
2022-10-10T15:10:02.479Z,100744.75
2022-10-10T15:12:30.875Z,100744.50
2022-10-10T15:14:58.367Z,100743.81
2022-10-10T15:17:27.137Z,100745.25
2022-10-10T15:19:56.293Z,100746.97
2022-10-10T15:22:23.882Z,100742.41
2022-10-10T15:24:51.384Z,100744.19
2022-10-10T15:27:18.860Z,100744.78
2022-10-10T15:29:46.353Z,100745.81
2022-10-10T15:32:13.789Z,100736.47
2022-10-10T15:34:41.320Z,100743.59
2022-10-10T15:37:10.524Z,100736.94
2022-10-10T15:39:38.576Z,100747.50
2022-10-10T15:42:12.739Z,100740.44
2022-10-10T15:44:45.513Z,100736.34
2022-10-10T15:47:13.310Z,100743.59
2022-10-10T15:49:40.818Z,100740.31
2022-10-10T15:52:10.270Z,100747.47
2022-10-10T15:54:37.755Z,100759.03
2022-10-10T15:57:05.461Z,100755.41
2022-10-10T15:59:33.122Z,100754.56
2022-10-10T16:02:00.651Z,100754.06
2022-10-10T16:04:28.552Z,100758.72
2022-10-10T16:09:46.045Z,100770.34
2022-10-10T16:12:13.890Z,100761.97
2022-10-10T16:14:41.626Z,100767.63
2022-10-10T16:17:09.972Z,100763.59
2022-10-10T16:19:38.354Z,100772.41
2022-10-10T16:22:08.058Z,100774.75
2022-10-10T16:24:36.147Z,100766.13
2022-10-10T16:27:05.807Z,100766.41
2022-10-10T16:29:33.579Z,100764.09
2022-10-10T16:32:03.845Z,100773.25
2022-10-10T16:34:34.494Z,100769.94
2022-10-10T16:37:02.657Z,100783.28
2022-10-10T16:39:30.514Z,100787.69
2022-10-10T16:42:01.039Z,100797.69
2022-10-10T16:44:36.663Z,100794.81
2022-10-10T16:47:04.733Z,100787.59
2022-10-10T16:49:33.313Z,100795.75
2022-10-10T16:52:01.276Z,100802.53
2022-10-10T16:54:29.263Z,100795.56
2022-10-10T16:56:57.160Z,100801.59
2022-10-10T16:59:25.335Z,100799.94
2022-10-10T17:01:54.987Z,100801.84
2022-10-10T17:04:23.312Z,100800.25
2022-10-10T17:06:50.756Z,100808.94
2022-10-10T17:09:18.251Z,100810.22
2022-10-10T17:11:50.474Z,100801.75
2022-10-10T17:14:18.782Z,100809.63
2022-10-10T17:17:11.191Z,100813.75
2022-10-10T17:19:35.211Z,100814.41
2022-10-10T17:22:02.699Z,100822.47
2022-10-10T17:24:30.225Z,100820.81
2022-10-10T17:26:57.695Z,100820.81
2022-10-10T17:29:25.190Z,100817.94
2022-10-10T17:31:52.641Z,100826.22
2022-10-10T17:34:20.227Z,100830.16
2022-10-10T17:36:49.311Z,100843.38
2022-10-10T17:39:16.793Z,100852.47
2022-10-10T17:41:45.591Z,100862.38
2022-10-10T17:44:13.557Z,100875.59
2022-10-10T17:46:41.980Z,100881.97
2022-10-10T17:49:11.507Z,100891.47
2022-10-10T17:51:40.051Z,100897.81
2022-10-10T17:54:09.880Z,100896.16
2022-10-10T17:56:39.092Z,100896.97
2022-10-10T17:59:06.771Z,100908.78
2022-10-10T18:01:34.844Z,100915.94
2022-10-10T18:04:02.909Z,100902.63
2022-10-10T18:06:32.890Z,100904.66
2022-10-10T18:09:00.982Z,100914.06
2022-10-10T18:11:31.284Z,100913.50
2022-10-10T18:14:01.274Z,100920.72
2022-10-10T18:16:30.670Z,100914.69
2022-10-10T18:18:59.258Z,100924.09
2022-10-10T18:21:27.337Z,100920.19
2022-10-10T18:23:55.249Z,100928.06
2022-10-10T18:26:27.239Z,100942.94
2022-10-10T18:28:57.000Z,100944.19
2022-10-10T18:31:26.382Z,100952.88
2022-10-10T18:33:54.461Z,100958.44
2022-10-10T18:36:24.928Z,100959.69
2022-10-10T18:38:52.784Z,100959.88
2022-10-10T18:41:22.028Z,100956.81
2022-10-10T18:43:50.398Z,100955.34
2022-10-10T18:46:22.075Z,100955.31
2022-10-10T18:48:53.791Z,100944.56
2022-10-10T18:51:24.854Z,100945.19
2022-10-10T18:53:53.470Z,100949.09
2022-10-10T18:56:24.588Z,100950.78
2022-10-10T18:58:54.582Z,100948.94
2022-10-10T19:01:27.403Z,100950.59
2022-10-10T19:03:56.194Z,100960.72
2022-10-10T19:06:24.708Z,100960.75
2022-10-10T19:08:55.752Z,100966.50
2022-10-10T19:11:25.507Z,100968.53
2022-10-10T19:13:53.504Z,100970.41
2022-10-10T19:16:24.468Z,100970.19
2022-10-10T19:18:55.208Z,100980.94
2022-10-10T19:21:25.411Z,100978.66
2022-10-10T19:23:53.205Z,100974.31
2022-10-10T19:26:21.337Z,100969.38
2022-10-10T19:28:48.928Z,100968.91
2022-10-10T19:31:17.877Z,100979.66
2022-10-10T19:33:51.450Z,100977.19
2022-10-10T19:36:19.275Z,100976.38
2022-10-10T19:38:46.916Z,100985.25
2022-10-10T19:41:15.070Z,100993.47
2022-10-10T19:43:43.360Z,100988.75
2022-10-10T19:46:13.666Z,100998.16
2022-10-10T19:48:41.920Z,100991.97
2022-10-10T19:51:12.156Z,100995.69
2022-10-10T19:53:40.840Z,101002.28
2022-10-10T19:56:09.930Z,101011.13
2022-10-10T19:58:37.830Z,101012.78
2022-10-10T20:01:07.765Z,101017.94
2022-10-10T20:03:35.547Z,101016.25
2022-10-10T20:06:03.797Z,101024.97
2022-10-10T20:08:33.269Z,101029.84
2022-10-10T20:11:01.175Z,101031.66
2022-10-10T20:13:28.854Z,101024.44
2022-10-10T20:16:00.253Z,101036.34
2022-10-10T20:18:28.124Z,101041.72
2022-10-10T20:20:58.526Z,101045.66
2022-10-10T20:23:26.563Z,101044.59
2022-10-10T20:25:55.523Z,101052.66
2022-10-10T20:28:23.557Z,101056.34
2022-10-10T20:30:52.148Z,101054.88
2022-10-10T20:33:21.006Z,101057.31
2022-10-10T20:35:53.602Z,101058.97
2022-10-10T20:38:23.521Z,101060.66
2022-10-10T20:40:51.169Z,101069.16
2022-10-10T20:43:20.179Z,101076.25
2022-10-10T20:45:47.903Z,101075.88
2022-10-10T20:48:15.442Z,101087.75
2022-10-10T20:50:43.091Z,101082.41
2022-10-10T20:53:10.816Z,101091.56
2022-10-10T20:55:38.446Z,101087.84
2022-10-10T20:58:07.060Z,101091.56
2022-10-10T21:00:37.639Z,101100.19
2022-10-10T21:03:05.290Z,101097.13
2022-10-10T21:05:32.840Z,101101.16
2022-10-10T21:08:01.154Z,101112.91
2022-10-10T21:10:29.994Z,101100.34
2022-10-10T21:12:57.876Z,101105.53
2022-10-10T21:15:25.531Z,101103.69
2022-10-10T21:17:55.477Z,101112.91
2022-10-10T21:20:23.144Z,101117.53
2022-10-10T21:22:50.746Z,101112.56
2022-10-10T21:25:18.453Z,101114.75
2022-10-10T21:27:46.058Z,101118.66
2022-10-10T21:30:13.641Z,101112.28
2022-10-10T21:32:43.407Z,101123.28
2022-10-10T21:35:12.340Z,101129.19
2022-10-10T21:37:39.906Z,101135.56
2022-10-10T21:40:08.545Z,101135.97
2022-10-10T21:42:36.166Z,101128.50
2022-10-10T21:45:04.086Z,101138.97
2022-10-10T21:47:31.721Z,101141.16
2022-10-10T21:49:59.364Z,101135.03
2022-10-10T21:52:28.883Z,101135.53
2022-10-10T21:54:56.569Z,101149.44
2022-10-10T21:57:24.164Z,101151.03
2022-10-10T21:59:51.696Z,101157.34
2022-10-10T22:02:19.250Z,101151.78
2022-10-10T22:04:51.097Z,101155.56
2022-10-10T22:07:18.807Z,101153.22
2022-10-10T22:09:47.867Z,101170.16
2022-10-10T22:12:16.444Z,101163.69
2022-10-10T22:14:44.042Z,101171.91
2022-10-10T22:17:11.752Z,101180.94
2022-10-10T22:19:39.388Z,101185.28
2022-10-10T22:22:06.997Z,101185.53
2022-10-10T22:24:34.544Z,101181.44
2022-10-10T22:27:03.429Z,101193.56
2022-10-10T22:29:30.925Z,101191.66
2022-10-10T22:31:58.395Z,101196.00
2022-10-10T22:34:25.915Z,101191.84
2022-10-10T22:36:53.773Z,101198.13
2022-10-10T22:39:21.713Z,101199.44
2022-10-10T22:41:49.169Z,101201.75
2022-10-10T22:44:17.964Z,101208.22
2022-10-10T22:46:45.432Z,101210.25
2022-10-10T22:49:13.122Z,101208.22
2022-10-10T22:51:40.775Z,101204.78
2022-10-10T22:54:08.230Z,101218.41
2022-10-10T22:56:35.710Z,101223.00
2022-10-10T22:59:03.145Z,101216.75
2022-10-10T23:01:32.067Z,101225.56
2022-10-10T23:04:03.262Z,101221.59
2022-10-10T23:06:30.771Z,101223.53
2022-10-10T23:08:58.232Z,101226.97
2022-10-10T23:11:25.725Z,101228.84
2022-10-10T23:13:53.230Z,101220.81
2022-10-10T23:16:20.763Z,101228.31
2022-10-10T23:18:49.561Z,101222.88
2022-10-10T23:21:17.399Z,101224.72
2022-10-10T23:23:44.868Z,101233.66
2022-10-10T23:26:12.522Z,101238.09
2022-10-10T23:28:40.187Z,101239.69
2022-10-10T23:31:09.603Z,101239.25
2022-10-10T23:33:37.396Z,101242.84
2022-10-10T23:36:08.681Z,101244.03
2022-10-10T23:38:36.878Z,101243.75
2022-10-10T23:41:04.577Z,101251.88
2022-10-10T23:43:32.035Z,101257.50
2022-10-10T23:45:59.509Z,101257.09
2022-10-10T23:48:27.007Z,101252.72
2022-10-10T23:50:54.500Z,101266.44
2022-10-10T23:53:23.286Z,101263.56
2022-10-10T23:55:50.783Z,101273.38
2022-10-10T23:58:18.239Z,101281.38
